createdAt,value
2023-01-17T00:00:32.730Z,7.25
2023-01-17T00:02:59.310Z,7.25
2023-01-17T00:05:44.433Z,7.27
2023-01-17T00:08:32.582Z,7.27
2023-01-17T00:10:59.237Z,7.24
2023-01-17T00:13:25.592Z,7.25
2023-01-17T00:15:52.203Z,7.22
2023-01-17T00:18:18.739Z,7.20
2023-01-17T00:21:03.904Z,7.17
2023-01-17T00:23:48.690Z,7.11
2023-01-17T00:26:18.210Z,7.07
2023-01-17T00:28:45.775Z,6.88
2023-01-17T00:31:14.368Z,6.84
2023-01-17T00:33:40.838Z,6.81
2023-01-17T00:36:08.120Z,6.78
2023-01-17T00:38:37.640Z,6.62
2023-01-17T00:41:07.561Z,6.59
2023-01-17T00:43:52.727Z,6.57
2023-01-17T00:46:38.228Z,6.44
2023-01-17T00:49:24.044Z,6.21
2023-01-17T00:52:09.047Z,6.23
2023-01-17T00:54:53.864Z,6.29
2023-01-17T00:57:38.745Z,6.22
2023-01-17T01:00:24.589Z,6.17
2023-01-17T01:03:09.439Z,6.08
2023-01-17T01:05:55.728Z,6.00
2023-01-17T01:08:48.122Z,6.04
2023-01-17T01:11:36.013Z,5.91
2023-01-17T01:14:22.350Z,5.59
2023-01-17T01:17:07.845Z,5.53
2023-01-17T01:19:52.844Z,5.53
2023-01-17T01:22:37.844Z,5.57
2023-01-17T01:25:23.227Z,5.62
2023-01-17T01:28:08.158Z,5.58
2023-01-17T01:30:53.454Z,5.48
2023-01-17T01:33:20.255Z,5.56
2023-01-17T01:35:51.540Z,5.74
2023-01-17T01:38:19.739Z,5.91
2023-01-17T01:40:51.440Z,5.95
2023-01-17T01:43:20.883Z,5.92
2023-01-17T01:45:53.085Z,5.91
2023-01-17T01:48:33.569Z,5.96
2023-01-17T01:51:04.236Z,5.90
2023-01-17T01:53:34.580Z,5.85
2023-01-17T01:56:02.141Z,5.86
2023-01-17T01:58:34.096Z,5.81
2023-01-17T02:01:00.978Z,5.80
2023-01-17T02:03:31.489Z,5.74
2023-01-17T02:06:09.161Z,5.80
2023-01-17T02:08:36.292Z,5.83
2023-01-17T02:11:02.989Z,5.87
2023-01-17T02:13:31.344Z,5.95
2023-01-17T02:16:44.231Z,5.96
2023-01-17T02:19:48.217Z,5.99
2023-01-17T02:22:24.644Z,5.98
2023-01-17T02:25:28.563Z,5.91
2023-01-17T02:28:32.365Z,5.97
2023-01-17T02:31:04.625Z,5.98
2023-01-17T02:33:57.485Z,5.90
2023-01-17T02:36:31.750Z,5.74
2023-01-17T02:39:07.255Z,5.64
2023-01-17T02:41:38.865Z,5.61
2023-01-17T02:44:10.153Z,5.61
2023-01-17T02:46:48.375Z,5.60
2023-01-17T02:49:17.357Z,5.61
2023-01-17T02:52:07.663Z,5.69
2023-01-17T02:54:53.340Z,5.72
2023-01-17T02:57:32.256Z,5.86
2023-01-17T03:00:13.925Z,5.93
2023-01-17T03:03:11.955Z,6.02
2023-01-17T03:05:46.160Z,6.09
2023-01-17T03:08:13.295Z,6.04
2023-01-17T03:10:41.207Z,6.09
2023-01-17T03:13:07.687Z,6.16
2023-01-17T03:15:34.092Z,6.16
2023-01-17T03:18:04.985Z,6.13
2023-01-17T03:20:31.505Z,6.16
2023-01-17T03:22:57.882Z,6.25
2023-01-17T03:25:24.261Z,6.30
2023-01-17T03:27:50.644Z,6.29
2023-01-17T03:30:17.647Z,6.30
2023-01-17T03:32:44.028Z,6.28
2023-01-17T03:35:10.525Z,6.26
2023-01-17T03:37:36.881Z,6.27
2023-01-17T03:40:03.887Z,6.20
2023-01-17T03:42:30.235Z,6.22
2023-01-17T03:44:56.689Z,6.18
2023-01-17T03:47:23.022Z,6.05
2023-01-17T03:49:49.436Z,5.95
2023-01-17T03:52:15.868Z,5.95
2023-01-17T03:54:42.360Z,5.95
2023-01-17T03:57:10.832Z,5.86
2023-01-17T03:59:37.333Z,5.82
2023-01-17T04:02:03.965Z,5.88
2023-01-17T04:04:30.507Z,5.79
2023-01-17T04:06:57.007Z,5.68
2023-01-17T04:09:23.357Z,5.68
2023-01-17T04:11:50.876Z,5.67
2023-01-17T04:14:17.643Z,5.68
2023-01-17T04:16:44.393Z,5.58
2023-01-17T04:19:13.284Z,5.42
2023-01-17T04:21:39.944Z,5.26
2023-01-17T04:24:06.728Z,5.23
2023-01-17T04:26:33.368Z,5.22
2023-01-17T04:28:59.721Z,5.20
2023-01-17T04:31:26.328Z,5.12
2023-01-17T04:33:52.833Z,5.05
2023-01-17T04:36:19.310Z,5.05
2023-01-17T04:38:45.655Z,4.92
2023-01-17T04:41:12.179Z,4.83
2023-01-17T04:43:38.725Z,4.76
2023-01-17T04:46:09.800Z,4.77
2023-01-17T04:48:36.535Z,4.76
2023-01-17T04:51:04.989Z,4.60
2023-01-17T04:53:32.096Z,4.58
2023-01-17T04:55:58.495Z,4.54
2023-01-17T04:58:24.872Z,4.46
2023-01-17T05:00:51.696Z,4.43
2023-01-17T05:03:18.953Z,4.32
2023-01-17T05:05:45.497Z,4.27
2023-01-17T05:08:11.992Z,4.26
2023-01-17T05:10:38.371Z,4.35
2023-01-17T05:13:04.877Z,4.37
2023-01-17T05:15:31.310Z,4.40
2023-01-17T05:17:57.935Z,4.51
2023-01-17T05:20:26.296Z,4.56
2023-01-17T05:22:57.077Z,4.58
2023-01-17T05:25:25.506Z,4.63
2023-01-17T05:27:52.535Z,4.53
2023-01-17T05:30:19.893Z,4.49
2023-01-17T05:32:54.058Z,4.57
2023-01-17T05:35:24.450Z,4.58
2023-01-17T05:37:51.713Z,4.58
2023-01-17T05:40:20.371Z,4.70
2023-01-17T05:42:48.091Z,4.69
2023-01-17T05:45:16.998Z,4.68
2023-01-17T05:47:44.569Z,4.66
2023-01-17T05:50:19.360Z,4.62
2023-01-17T05:52:53.389Z,4.55
2023-01-17T05:55:20.835Z,4.51
2023-01-17T05:57:47.467Z,4.59
2023-01-17T06:00:14.838Z,4.78
2023-01-17T06:02:41.489Z,4.91
2023-01-17T06:05:08.216Z,4.96
2023-01-17T06:07:34.619Z,5.01
2023-01-17T06:10:02.296Z,5.08
2023-01-17T06:12:28.837Z,5.12
2023-01-17T06:14:55.371Z,5.18
2023-01-17T06:17:21.819Z,5.17
2023-01-17T06:19:48.240Z,5.24
2023-01-17T06:22:14.630Z,5.23
2023-01-17T06:24:41.061Z,5.17
2023-01-17T06:27:09.704Z,5.15
2023-01-17T06:29:36.464Z,5.19
2023-01-17T06:32:03.080Z,5.19
2023-01-17T06:34:29.520Z,5.23
2023-01-17T06:36:56.067Z,5.31
2023-01-17T06:39:22.596Z,5.39
2023-01-17T06:41:49.243Z,5.39
2023-01-17T06:44:15.739Z,5.41
2023-01-17T06:46:42.497Z,5.36
2023-01-17T06:49:12.125Z,5.24
2023-01-17T06:51:38.710Z,5.24
2023-01-17T06:54:13.236Z,5.24
2023-01-17T06:56:39.825Z,5.33
2023-01-17T06:59:06.281Z,5.37
2023-01-17T07:01:32.915Z,5.25
2023-01-17T07:03:59.398Z,5.20
2023-01-17T07:06:31.956Z,5.19
2023-01-17T07:08:59.076Z,5.21
2023-01-17T07:11:27.232Z,5.24
2023-01-17T07:13:54.069Z,5.24
2023-01-17T07:16:20.620Z,5.29
2023-01-17T07:18:47.065Z,5.23
2023-01-17T07:21:14.813Z,5.11
2023-01-17T07:23:41.642Z,5.06
2023-01-17T07:26:08.205Z,5.08
2023-01-17T07:28:34.716Z,5.08
2023-01-17T07:31:06.808Z,4.98
2023-01-17T07:33:33.533Z,5.05
2023-01-17T07:36:04.791Z,5.01
2023-01-17T07:38:31.362Z,4.99
2023-01-17T07:40:59.534Z,5.08
2023-01-17T07:43:26.160Z,5.20
2023-01-17T07:45:57.441Z,5.21
2023-01-17T07:48:25.775Z,5.11
2023-01-17T07:50:56.797Z,5.12
2023-01-17T07:53:25.458Z,5.11
2023-01-17T07:55:52.394Z,5.15
2023-01-17T07:58:19.140Z,5.13
2023-01-17T08:00:45.937Z,4.99
2023-01-17T08:03:14.745Z,4.95
2023-01-17T08:05:44.198Z,5.00
2023-01-17T08:08:10.589Z,5.06
2023-01-17T08:10:37.018Z,5.07
2023-01-17T08:13:03.530Z,5.11
2023-01-17T08:15:36.083Z,4.98
2023-01-17T08:18:02.599Z,5.00
2023-01-17T08:20:29.021Z,4.78
2023-01-17T08:22:56.606Z,4.64
2023-01-17T08:25:24.881Z,4.54
2023-01-17T08:27:56.087Z,4.62
2023-01-17T08:30:22.735Z,4.71
2023-01-17T08:32:49.099Z,4.78
2023-01-17T08:35:15.658Z,4.82
2023-01-17T08:37:42.111Z,4.85
2023-01-17T08:40:10.546Z,4.90
2023-01-17T08:42:43.926Z,5.01
2023-01-17T08:45:11.779Z,5.14
2023-01-17T08:47:38.206Z,5.19
2023-01-17T08:50:06.874Z,5.21
2023-01-17T08:52:34.247Z,5.26
2023-01-17T08:55:00.771Z,5.29
2023-01-17T08:57:27.517Z,5.31
2023-01-17T08:59:54.002Z,5.18
2023-01-17T09:02:20.621Z,5.13
2023-01-17T09:04:49.494Z,5.11
2023-01-17T09:07:18.356Z,4.97
2023-01-17T09:09:44.887Z,4.90
2023-01-17T09:12:11.661Z,4.77
2023-01-17T09:14:38.195Z,4.73
2023-01-17T09:17:08.261Z,4.71
2023-01-17T09:19:35.678Z,4.79
2023-01-17T09:22:04.638Z,4.72
2023-01-17T09:24:32.792Z,4.60
2023-01-17T09:27:00.257Z,4.77
2023-01-17T09:29:26.891Z,4.86
2023-01-17T09:31:54.437Z,4.84
2023-01-17T09:34:25.332Z,4.82
2023-01-17T09:36:51.759Z,4.68
2023-01-17T09:39:18.653Z,4.53
2023-01-17T09:41:52.687Z,4.51
2023-01-17T09:44:24.630Z,4.51
2023-01-17T09:47:02.010Z,4.38
2023-01-17T09:49:39.936Z,4.30
2023-01-17T09:52:11.068Z,4.16
2023-01-17T09:54:43.313Z,3.90
2023-01-17T09:57:39.028Z,3.86
2023-01-17T10:00:44.194Z,3.69
2023-01-17T10:03:45.691Z,3.63
2023-01-17T10:06:22.329Z,3.69
2023-01-17T10:09:18.341Z,3.89
2023-01-17T10:11:53.805Z,4.07
2023-01-17T10:14:41.219Z,4.20
2023-01-17T10:17:16.031Z,4.29
2023-01-17T10:19:59.649Z,4.31
2023-01-17T10:22:31.015Z,4.41
2023-01-17T10:25:33.120Z,4.41
2023-01-17T10:28:12.921Z,4.50
2023-01-17T10:30:48.635Z,4.76
2023-01-17T10:33:19.577Z,5.58
2023-01-17T10:35:54.525Z,6.47
2023-01-17T10:38:26.559Z,7.12
2023-01-17T10:41:30.000Z,7.15
2023-01-17T10:44:11.434Z,7.49
2023-01-17T10:47:05.406Z,7.72
2023-01-17T10:49:31.906Z,7.26
2023-01-17T10:52:02.004Z,6.74
2023-01-17T10:54:51.338Z,6.32
2023-01-17T10:57:22.012Z,5.85
2023-01-17T10:59:49.341Z,5.61
2023-01-17T11:02:21.609Z,5.40
2023-01-17T11:04:54.270Z,5.31
2023-01-17T11:07:25.620Z,5.20
2023-01-17T11:09:54.525Z,5.31
2023-01-17T11:12:46.993Z,5.45
2023-01-17T11:15:13.280Z,5.91
2023-01-17T11:18:01.821Z,6.45
2023-01-17T11:20:40.259Z,6.65
2023-01-17T11:23:15.208Z,6.45
2023-01-17T11:25:52.997Z,6.20
2023-01-17T11:28:39.653Z,6.03
2023-01-17T11:31:23.117Z,6.02
2023-01-17T11:34:05.335Z,6.02
2023-01-17T11:36:32.734Z,6.56
2023-01-17T11:39:21.726Z,6.94
2023-01-17T11:41:48.599Z,7.46
2023-01-17T11:44:27.335Z,8.17
2023-01-17T11:47:11.796Z,8.65
2023-01-17T11:49:39.878Z,9.22
2023-01-17T11:52:26.196Z,9.42
2023-01-17T11:54:55.805Z,9.04
2023-01-17T11:57:33.281Z,9.74
2023-01-17T12:00:24.656Z,11.24
2023-01-17T12:03:13.825Z,12.16
2023-01-17T12:06:08.101Z,13.30
2023-01-17T12:08:59.265Z,12.60
2023-01-17T12:11:36.009Z,10.68
2023-01-17T12:14:36.464Z,9.83
2023-01-17T12:17:33.398Z,10.35
2023-01-17T12:20:05.746Z,10.95
2023-01-17T12:22:53.535Z,10.31
2023-01-17T12:25:29.100Z,9.35
2023-01-17T12:27:55.483Z,8.79
2023-01-17T12:30:35.349Z,8.42
2023-01-17T12:33:08.653Z,8.81
2023-01-17T12:35:53.904Z,9.40
2023-01-17T12:38:35.424Z,8.92
2023-01-17T12:41:17.506Z,8.10
2023-01-17T12:43:44.744Z,7.64
2023-01-17T12:46:24.551Z,7.38
2023-01-17T12:48:55.925Z,7.40
2023-01-17T12:51:30.257Z,7.57
2023-01-17T12:54:08.539Z,7.75
2023-01-17T12:56:41.777Z,7.66
2023-01-17T12:59:20.091Z,7.16
2023-01-17T13:01:57.657Z,7.20
2023-01-17T13:04:34.159Z,7.42
2023-01-17T13:07:00.794Z,7.28
2023-01-17T13:09:32.874Z,7.03
2023-01-17T13:12:12.794Z,7.23
2023-01-17T13:14:39.183Z,7.18
2023-01-17T13:17:34.044Z,6.96
2023-01-17T13:20:14.149Z,7.00
2023-01-17T13:22:42.841Z,7.14
2023-01-17T13:25:24.527Z,7.10
2023-01-17T13:28:03.128Z,7.02
2023-01-17T13:30:43.136Z,6.90
2023-01-17T13:33:37.437Z,6.79
2023-01-17T13:36:25.366Z,6.81
2023-01-17T13:39:27.130Z,6.69
2023-01-17T13:42:08.830Z,6.51
2023-01-17T13:44:36.348Z,6.41
2023-01-17T13:47:10.189Z,6.52
2023-01-17T13:49:49.447Z,6.62
2023-01-17T13:52:18.825Z,6.62
2023-01-17T13:54:56.510Z,6.50
2023-01-17T13:57:22.993Z,6.51
2023-01-17T13:59:53.077Z,6.36
2023-01-17T14:02:31.715Z,6.19
2023-01-17T14:05:37.764Z,5.97
2023-01-17T14:08:12.999Z,5.93
2023-01-17T14:10:47.230Z,5.89
2023-01-17T14:13:36.295Z,6.02
2023-01-17T14:16:26.308Z,6.06
2023-01-17T14:18:54.433Z,5.89
2023-01-17T14:21:25.274Z,5.86
2023-01-17T14:23:58.679Z,5.82
2023-01-17T14:26:53.835Z,5.75
2023-01-17T14:29:42.427Z,5.66
2023-01-17T14:32:12.362Z,5.63
2023-01-17T14:34:39.099Z,5.70
2023-01-17T14:37:17.357Z,5.68
2023-01-17T14:39:46.091Z,5.70
2023-01-17T14:42:15.584Z,5.54
2023-01-17T14:44:49.096Z,5.55
2023-01-17T14:47:16.589Z,5.42
2023-01-17T14:49:43.885Z,5.45
2023-01-17T14:52:16.200Z,5.60
2023-01-17T14:54:50.925Z,5.51
2023-01-17T14:57:28.603Z,5.36
2023-01-17T15:00:20.291Z,5.26
2023-01-17T15:02:48.407Z,5.28
2023-01-17T15:05:17.100Z,5.35
2023-01-17T15:07:46.844Z,5.35
2023-01-17T15:10:15.901Z,5.35
2023-01-17T15:12:46.512Z,5.41
2023-01-17T15:15:35.581Z,5.32
2023-01-17T15:18:10.113Z,5.42
2023-01-17T15:20:37.698Z,5.38
2023-01-17T15:23:05.342Z,5.33
2023-01-17T15:25:32.112Z,5.27
2023-01-17T15:27:59.057Z,5.08
2023-01-17T15:30:25.645Z,5.08
2023-01-17T15:32:52.923Z,5.03
2023-01-17T15:35:20.567Z,4.96
2023-01-17T15:37:52.646Z,4.92
2023-01-17T15:40:25.441Z,4.81
2023-01-17T15:42:59.066Z,4.72
2023-01-17T15:45:32.576Z,4.70
2023-01-17T15:48:38.933Z,4.65
2023-01-17T15:51:05.679Z,4.65
2023-01-17T15:53:35.308Z,4.68
2023-01-17T15:56:20.636Z,4.67
2023-01-17T15:58:50.013Z,4.61
2023-01-17T16:01:23.801Z,4.60
2023-01-17T16:03:54.797Z,4.67
2023-01-17T16:06:45.809Z,4.78
2023-01-17T16:09:23.236Z,4.71
2023-01-17T16:11:49.644Z,4.71
2023-01-17T16:14:16.833Z,4.66
2023-01-17T16:16:54.084Z,4.62
2023-01-17T16:19:21.467Z,4.55
2023-01-17T16:21:48.346Z,4.53
2023-01-17T16:24:15.056Z,4.46
2023-01-17T16:26:41.546Z,4.46
2023-01-17T16:29:08.140Z,4.47
2023-01-17T16:31:35.317Z,4.44
2023-01-17T16:34:01.833Z,4.46
2023-01-17T16:36:28.670Z,4.48
2023-01-17T16:38:55.191Z,4.40
2023-01-17T16:41:22.298Z,4.34
2023-01-17T16:44:06.217Z,4.26
2023-01-17T16:46:33.168Z,4.25
2023-01-17T16:49:01.047Z,4.27
2023-01-17T16:51:28.453Z,4.26
2023-01-17T16:53:54.870Z,4.22
2023-01-17T16:56:23.135Z,4.18
2023-01-17T16:58:51.124Z,4.15
2023-01-17T17:01:20.584Z,4.11
2023-01-17T17:03:47.111Z,4.05
2023-01-17T17:06:13.598Z,3.99
2023-01-17T17:08:39.964Z,3.93
2023-01-17T17:11:18.509Z,3.90
2023-01-17T17:13:46.769Z,3.98
2023-01-17T17:16:26.427Z,3.95
2023-01-17T17:18:58.465Z,3.90
2023-01-17T17:21:25.997Z,3.84
2023-01-17T17:23:57.877Z,3.86
2023-01-17T17:26:27.169Z,3.86
2023-01-17T17:28:54.468Z,3.82
2023-01-17T17:31:20.963Z,3.81
2023-01-17T17:33:47.738Z,3.78
2023-01-17T17:36:14.504Z,3.76
2023-01-17T17:38:53.451Z,3.76
2023-01-17T17:41:31.583Z,3.82
2023-01-17T17:44:00.538Z,3.81
2023-01-17T17:46:27.392Z,3.74
2023-01-17T17:48:53.868Z,3.75
2023-01-17T17:51:22.958Z,3.80
2023-01-17T17:53:50.192Z,3.83
2023-01-17T17:56:16.904Z,3.74
2023-01-17T17:58:46.033Z,3.64
2023-01-17T18:01:12.843Z,3.57
2023-01-17T18:03:39.663Z,3.52
2023-01-17T18:06:08.889Z,3.51
2023-01-17T18:08:36.927Z,3.48
2023-01-17T18:11:07.348Z,3.47
2023-01-17T18:13:34.120Z,3.41
2023-01-17T18:16:04.650Z,3.38
2023-01-17T18:18:32.199Z,3.37
2023-01-17T18:21:28.930Z,3.38
2023-01-17T18:24:04.181Z,3.32
2023-01-17T18:26:33.920Z,3.30
2023-01-17T18:29:01.978Z,3.30
2023-01-17T18:31:30.154Z,3.27
2023-01-17T18:34:03.964Z,3.25
2023-01-17T18:36:30.554Z,3.22
2023-01-17T18:38:57.040Z,3.26
2023-01-17T18:41:26.443Z,3.23
2023-01-17T18:43:53.177Z,3.17
2023-01-17T18:46:20.188Z,3.19
2023-01-17T18:48:47.251Z,3.21
2023-01-17T18:51:15.854Z,3.19
2023-01-17T18:53:44.481Z,3.20
2023-01-17T18:56:13.926Z,3.20
2023-01-17T18:58:42.937Z,3.19
2023-01-17T19:01:21.068Z,3.20
2023-01-17T19:03:49.452Z,3.19
2023-01-17T19:06:20.031Z,3.16
2023-01-17T19:08:48.313Z,3.13
2023-01-17T19:11:15.357Z,3.13
2023-01-17T19:13:41.903Z,3.13
2023-01-17T19:16:12.710Z,3.12
2023-01-17T19:18:39.133Z,3.08
2023-01-17T19:21:16.883Z,3.08
2023-01-17T19:23:43.545Z,3.15
2023-01-17T19:26:11.481Z,3.22
2023-01-17T19:28:40.411Z,3.19
2023-01-17T19:31:12.818Z,3.17
2023-01-17T19:33:42.013Z,3.19
2023-01-17T19:36:11.796Z,3.17
2023-01-17T19:38:38.216Z,3.13
2023-01-17T19:41:26.539Z,3.12
2023-01-17T19:44:01.846Z,3.18
2023-01-17T19:46:28.529Z,3.08
2023-01-17T19:48:56.635Z,3.08
2023-01-17T19:51:24.633Z,3.08
2023-01-17T19:53:51.351Z,3.06
2023-01-17T19:56:20.568Z,3.06
2023-01-17T19:58:49.065Z,3.09
2023-01-17T20:01:18.561Z,3.08
2023-01-17T20:03:46.023Z,3.10
2023-01-17T20:06:14.634Z,3.08
2023-01-17T20:08:41.499Z,3.01
2023-01-17T20:11:10.788Z,3.01
2023-01-17T20:13:37.351Z,3.01
2023-01-17T20:16:06.151Z,3.01
2023-01-17T20:18:33.697Z,2.96
2023-01-17T20:21:05.071Z,2.97
2023-01-17T20:23:36.178Z,2.96
2023-01-17T20:26:04.585Z,2.92
2023-01-17T20:28:35.741Z,2.88
2023-01-17T20:31:17.002Z,2.91
2023-01-17T20:33:45.341Z,2.97
2023-01-17T20:36:14.991Z,2.97
2023-01-17T20:38:44.863Z,2.93
2023-01-17T20:41:23.147Z,2.93
2023-01-17T20:43:55.265Z,2.98
2023-01-17T20:46:24.890Z,2.95
2023-01-17T20:48:53.427Z,2.92
2023-01-17T20:51:20.695Z,2.93
2023-01-17T20:53:51.688Z,2.97
2023-01-17T20:56:18.769Z,2.96
2023-01-17T20:58:45.169Z,2.99
2023-01-17T21:01:20.014Z,2.94
2023-01-17T21:03:49.154Z,2.94
2023-01-17T21:06:15.558Z,2.96
2023-01-17T21:08:45.227Z,2.97
2023-01-17T21:11:15.098Z,2.90
2023-01-17T21:13:42.492Z,2.90
2023-01-17T21:16:10.648Z,2.90
2023-01-17T21:18:37.349Z,2.88
2023-01-17T21:21:07.327Z,2.87
2023-01-17T21:23:38.093Z,2.91
2023-01-17T21:26:06.067Z,2.90
2023-01-17T21:28:35.281Z,2.91
2023-01-17T21:31:07.231Z,2.87
2023-01-17T21:33:33.648Z,2.83
2023-01-17T21:36:08.449Z,2.81
2023-01-17T21:38:34.955Z,2.74
2023-01-17T21:41:01.689Z,2.69
2023-01-17T21:43:28.233Z,2.64
2023-01-17T21:45:54.730Z,2.58
2023-01-17T21:48:21.242Z,2.51
2023-01-17T21:50:47.655Z,2.53
2023-01-17T21:53:14.141Z,2.47
2023-01-17T21:55:59.122Z,2.39
2023-01-17T21:58:44.765Z,2.35
2023-01-17T22:01:18.389Z,2.33
2023-01-17T22:03:48.973Z,2.33
2023-01-17T22:06:15.584Z,2.30
2023-01-17T22:08:42.089Z,2.31
2023-01-17T22:11:14.735Z,2.31
2023-01-17T22:13:42.557Z,2.34
2023-01-17T22:16:11.976Z,2.38
2023-01-17T22:18:39.723Z,2.39
2023-01-17T22:21:12.321Z,2.39
2023-01-17T22:23:39.642Z,2.39
2023-01-17T22:26:10.297Z,2.43
2023-01-17T22:28:37.970Z,2.44
2023-01-17T22:31:20.617Z,2.37
2023-01-17T22:33:51.652Z,2.33
2023-01-17T22:36:18.116Z,2.27
2023-01-17T22:38:44.521Z,2.16
2023-01-17T22:41:15.994Z,2.10
2023-01-17T22:43:44.955Z,2.08
2023-01-17T22:46:15.228Z,2.03
2023-01-17T22:48:42.415Z,1.95
2023-01-17T22:51:11.734Z,1.98
2023-01-17T22:53:49.958Z,1.89
2023-01-17T22:56:19.749Z,1.87
2023-01-17T22:58:48.570Z,1.87
2023-01-17T23:01:20.592Z,1.91
2023-01-17T23:03:52.158Z,1.85
2023-01-17T23:06:21.863Z,1.76
2023-01-17T23:08:50.941Z,1.80
2023-01-17T23:11:40.858Z,1.91
2023-01-17T23:14:16.712Z,2.06
2023-01-17T23:17:04.680Z,2.09
2023-01-17T23:19:42.225Z,1.98
2023-01-17T23:22:18.911Z,1.93
2023-01-17T23:24:53.955Z,1.82
2023-01-17T23:27:47.632Z,1.87
2023-01-17T23:30:15.683Z,1.92
2023-01-17T23:32:47.933Z,2.03
2023-01-17T23:35:15.430Z,2.07
2023-01-17T23:38:00.460Z,2.08
2023-01-17T23:40:27.324Z,2.06
2023-01-17T23:43:12.416Z,1.95
2023-01-17T23:45:39.533Z,1.88
2023-01-17T23:48:11.554Z,1.88
2023-01-17T23:50:40.277Z,1.91
2023-01-17T23:53:07.415Z,1.87
2023-01-17T23:55:40.232Z,1.85
2023-01-17T23:58:09.672Z,1.84
